createdAt,value
2023-08-27T00:01:17.027Z,99740.91
2023-08-27T00:04:20.152Z,99747.06
2023-08-27T00:07:22.888Z,99753.50
2023-08-27T00:10:25.663Z,99766.38
2023-08-27T00:13:28.374Z,99773.06
2023-08-27T00:16:31.181Z,99775.44
2023-08-27T00:19:33.890Z,99773.28
2023-08-27T00:22:40.409Z,99779.97
2023-08-27T00:25:46.705Z,99773.25
2023-08-27T00:28:49.430Z,99778.22
2023-08-27T00:31:52.126Z,99782.22
2023-08-27T00:34:55.045Z,99787.53
2023-08-27T00:37:57.744Z,99788.63
2023-08-27T00:41:00.539Z,99790.22
2023-08-27T00:44:03.292Z,99795.28
2023-08-27T00:47:06.483Z,99807.84
2023-08-27T00:50:11.666Z,99804.31
2023-08-27T00:53:14.588Z,99807.25
2023-08-27T00:56:17.266Z,99801.84
2023-08-27T00:59:20.061Z,99807.97
2023-08-27T01:02:22.876Z,99802.31
2023-08-27T01:05:26.630Z,99801.19
2023-08-27T01:08:39.671Z,99802.59
2023-08-27T01:12:04.656Z,99795.28
2023-08-27T01:15:08.573Z,99790.47
2023-08-27T01:18:12.248Z,99790.69
2023-08-27T01:21:28.575Z,99792.00
2023-08-27T01:24:31.585Z,99805.38
2023-08-27T01:27:41.388Z,99796.25
2023-08-27T01:30:57.552Z,99792.72
2023-08-27T01:34:01.389Z,99794.63
2023-08-27T01:37:07.772Z,99785.69
2023-08-27T01:40:10.857Z,99787.00
2023-08-27T01:43:14.196Z,99786.94
2023-08-27T01:46:16.911Z,99771.34
2023-08-27T01:49:19.650Z,99774.03
2023-08-27T01:52:22.415Z,99779.94
2023-08-27T01:55:25.277Z,99778.81
2023-08-27T01:58:29.263Z,99762.69
2023-08-27T02:01:32.030Z,99762.63
2023-08-27T02:04:34.703Z,99759.13
2023-08-27T02:07:38.643Z,99750.78
2023-08-27T02:10:41.428Z,99748.63
2023-08-27T02:13:44.103Z,99750.75
2023-08-27T02:16:46.785Z,99754.12
2023-08-27T02:19:49.501Z,99768.84
2023-08-27T02:22:55.593Z,99781.69
2023-08-27T02:25:58.519Z,99776.56
2023-08-27T02:29:02.168Z,99782.94
2023-08-27T02:32:05.212Z,99781.81
2023-08-27T02:35:08.466Z,99781.22
2023-08-27T02:38:11.170Z,99769.66
2023-08-27T02:41:14.671Z,99768.53
2023-08-27T02:44:17.380Z,99767.72
2023-08-27T02:47:20.613Z,99775.81
2023-08-27T02:50:23.330Z,99765.03
2023-08-27T02:53:25.979Z,99778.13
2023-08-27T02:56:28.736Z,99781.25
2023-08-27T02:59:31.696Z,99767.53
2023-08-27T03:02:34.467Z,99762.94
2023-08-27T03:05:37.415Z,99769.59
2023-08-27T03:08:40.229Z,99752.06
2023-08-27T03:11:42.854Z,99773.41
2023-08-27T03:14:45.790Z,99773.81
2023-08-27T03:17:48.461Z,99762.97
2023-08-27T03:20:51.251Z,99777.72
2023-08-27T03:23:53.872Z,99772.56
2023-08-27T03:26:56.683Z,99766.56
2023-08-27T03:29:59.383Z,99766.00
2023-08-27T03:33:03.759Z,99769.75
2023-08-27T03:36:06.782Z,99754.59
2023-08-27T03:39:10.007Z,99744.53
2023-08-27T03:42:12.689Z,99750.28
2023-08-27T03:45:15.515Z,99747.38
2023-08-27T03:48:18.248Z,99748.91
2023-08-27T03:51:21.062Z,99734.66
2023-08-27T03:54:23.961Z,99738.62
2023-08-27T03:57:26.666Z,99725.06
2023-08-27T04:00:29.404Z,99732.59
2023-08-27T04:03:33.112Z,99725.88
2023-08-27T04:06:35.894Z,99733.25
2023-08-27T04:09:39.251Z,99734.44
2023-08-27T04:12:41.915Z,99730.62
2023-08-27T04:15:44.666Z,99727.37
2023-08-27T04:18:47.780Z,99730.78
2023-08-27T04:21:50.526Z,99734.66
2023-08-27T04:24:53.217Z,99734.19
2023-08-27T04:27:56.046Z,99736.03
2023-08-27T04:30:58.756Z,99740.34
2023-08-27T04:34:01.460Z,99755.47
2023-08-27T04:37:05.174Z,99739.75
2023-08-27T04:40:08.595Z,99753.12
2023-08-27T04:43:11.467Z,99758.47
2023-08-27T04:46:17.192Z,99752.66
2023-08-27T04:49:20.312Z,99764.31
2023-08-27T04:52:31.094Z,99766.88
2023-08-27T04:55:37.905Z,99754.41
2023-08-27T04:58:40.681Z,99753.41
2023-08-27T05:01:43.357Z,99748.44
2023-08-27T05:04:47.443Z,99732.06
2023-08-27T05:07:50.108Z,99730.91
2023-08-27T05:10:52.848Z,99740.66
2023-08-27T05:13:55.612Z,99737.06
2023-08-27T05:16:58.458Z,99729.41
2023-08-27T05:20:01.291Z,99734.09
2023-08-27T05:23:04.281Z,99723.03
2023-08-27T05:26:06.966Z,99717.56
2023-08-27T05:29:09.640Z,99716.09
2023-08-27T05:32:12.359Z,99712.72
2023-08-27T05:35:15.116Z,99698.38
2023-08-27T05:38:17.844Z,99691.59
2023-08-27T05:41:20.793Z,99676.16
2023-08-27T05:44:24.311Z,99695.25
2023-08-27T05:47:30.277Z,99688.66
2023-08-27T05:50:38.101Z,99671.25
2023-08-27T05:53:41.122Z,99686.75
2023-08-27T05:56:43.848Z,99701.81
2023-08-27T05:59:47.745Z,99700.53
2023-08-27T06:02:50.462Z,99692.84
2023-08-27T06:05:53.178Z,99686.50
2023-08-27T06:08:55.888Z,99693.50
2023-08-27T06:11:59.991Z,99692.72
2023-08-27T06:15:08.749Z,99687.69
2023-08-27T06:18:11.503Z,99672.72
2023-08-27T06:21:14.204Z,99687.31
2023-08-27T06:24:17.177Z,99673.94
2023-08-27T06:27:20.204Z,99686.88
2023-08-27T06:30:23.999Z,99674.31
2023-08-27T06:33:29.059Z,99666.81
2023-08-27T06:36:33.073Z,99666.03
2023-08-27T06:39:41.998Z,99663.38
2023-08-27T06:42:44.689Z,99662.56
2023-08-27T06:45:47.439Z,99657.97
2023-08-27T06:48:50.784Z,99649.34
2023-08-27T06:51:53.608Z,99644.50
2023-08-27T06:54:56.522Z,99654.69
2023-08-27T06:58:00.265Z,99636.34
2023-08-27T07:01:06.282Z,99635.47
2023-08-27T07:04:09.002Z,99646.53
2023-08-27T07:07:11.740Z,99653.78
2023-08-27T07:10:14.452Z,99652.09
2023-08-27T07:13:17.184Z,99646.38
2023-08-27T07:16:21.244Z,99631.88
2023-08-27T07:19:24.072Z,99621.59
2023-08-27T07:22:26.901Z,99622.41
2023-08-27T07:25:29.678Z,99622.13
2023-08-27T07:28:33.000Z,99628.47
2023-08-27T07:31:35.755Z,99635.03
2023-08-27T07:34:38.517Z,99636.59
2023-08-27T07:37:41.257Z,99634.06
2023-08-27T07:40:44.061Z,99632.72
2023-08-27T07:43:46.771Z,99642.13
2023-08-27T07:46:49.494Z,99642.91
2023-08-27T07:49:52.425Z,99634.03
2023-08-27T07:52:55.260Z,99634.09
2023-08-27T07:55:58.638Z,99630.00
2023-08-27T07:59:01.509Z,99633.03
2023-08-27T08:02:04.666Z,99627.59
2023-08-27T08:05:08.385Z,99623.22
2023-08-27T08:08:11.294Z,99601.88
2023-08-27T08:11:13.941Z,99608.16
2023-08-27T08:14:16.823Z,99600.81
2023-08-27T08:17:22.289Z,99596.56
2023-08-27T08:20:27.199Z,99596.41
2023-08-27T08:23:29.997Z,99595.66
2023-08-27T08:26:32.758Z,99584.28
2023-08-27T08:29:35.673Z,99579.84
2023-08-27T08:32:38.596Z,99582.97
2023-08-27T08:35:41.309Z,99577.84
2023-08-27T08:38:44.443Z,99578.22
2023-08-27T08:41:58.907Z,99572.94
2023-08-27T08:45:26.505Z,99575.13
2023-08-27T08:48:51.101Z,99572.69
2023-08-27T08:51:56.992Z,99580.00
2023-08-27T08:54:59.936Z,99573.59
2023-08-27T08:58:09.345Z,99566.34
2023-08-27T09:01:12.574Z,99575.91
2023-08-27T09:04:16.481Z,99573.94
2023-08-27T09:07:20.077Z,99568.19
2023-08-27T09:10:24.062Z,99567.75
2023-08-27T09:13:26.874Z,99562.56
2023-08-27T09:16:29.711Z,99563.78
2023-08-27T09:19:32.545Z,99556.00
2023-08-27T09:22:37.842Z,99555.03
2023-08-27T09:25:41.128Z,99560.25
2023-08-27T09:28:43.992Z,99562.59
2023-08-27T09:31:47.028Z,99549.72
2023-08-27T09:34:50.477Z,99559.63
2023-08-27T09:37:53.194Z,99559.19
2023-08-27T09:40:56.042Z,99561.47
2023-08-27T09:43:58.785Z,99550.59
2023-08-27T09:47:06.068Z,99561.78
2023-08-27T09:50:15.567Z,99544.53
2023-08-27T09:53:18.508Z,99536.03
2023-08-27T09:56:26.353Z,99538.63
2023-08-27T09:59:29.914Z,99548.47
2023-08-27T10:02:32.578Z,99544.88
2023-08-27T10:05:35.816Z,99549.53
2023-08-27T10:08:52.417Z,99532.97
2023-08-27T10:11:55.352Z,99531.09
2023-08-27T10:14:58.816Z,99530.50
2023-08-27T10:18:01.862Z,99523.06
2023-08-27T10:21:05.044Z,99516.41
2023-08-27T10:24:11.787Z,99509.16
2023-08-27T10:27:14.669Z,99507.88
2023-08-27T10:30:18.795Z,99504.06
2023-08-27T10:33:21.554Z,99506.06
2023-08-27T10:36:30.691Z,99507.13
2023-08-27T10:39:34.261Z,99514.72
2023-08-27T10:42:40.596Z,99505.53
2023-08-27T10:45:43.415Z,99501.62
2023-08-27T10:48:51.209Z,99498.66
2023-08-27T10:51:57.228Z,99499.59
2023-08-27T10:55:03.542Z,99490.94
2023-08-27T10:58:17.826Z,99493.31
2023-08-27T11:01:20.719Z,99500.81
2023-08-27T11:04:35.845Z,99503.22
2023-08-27T11:07:42.472Z,99490.13
2023-08-27T11:10:46.040Z,99494.56
2023-08-27T11:13:48.816Z,99483.47
2023-08-27T11:17:04.780Z,99471.66
2023-08-27T11:20:27.297Z,99481.69
2023-08-27T11:23:30.060Z,99477.53
2023-08-27T11:26:33.859Z,99475.69
2023-08-27T11:29:41.530Z,99474.59
2023-08-27T11:32:44.813Z,99471.81
2023-08-27T11:35:47.539Z,99480.63
2023-08-27T11:38:50.320Z,99473.28
2023-08-27T11:41:53.009Z,99469.94
2023-08-27T11:44:56.946Z,99456.81
2023-08-27T11:48:07.222Z,99456.81
2023-08-27T11:51:10.726Z,99464.22
2023-08-27T11:54:13.811Z,99451.66
2023-08-27T11:57:17.422Z,99449.63
2023-08-27T12:00:21.916Z,99453.56
2023-08-27T12:03:24.905Z,99462.22
2023-08-27T12:06:29.716Z,99457.44
2023-08-27T12:09:36.880Z,99449.25
2023-08-27T12:12:41.307Z,99440.72
2023-08-27T12:15:44.364Z,99445.03
2023-08-27T12:18:47.875Z,99434.75
2023-08-27T12:21:55.449Z,99427.63
2023-08-27T12:25:00.561Z,99430.91
2023-08-27T12:28:03.437Z,99419.69
2023-08-27T12:31:06.208Z,99423.75
2023-08-27T12:34:08.961Z,99419.25
2023-08-27T12:37:12.905Z,99430.31
2023-08-27T12:40:15.766Z,99421.34
2023-08-27T12:43:18.484Z,99408.84
2023-08-27T12:46:21.570Z,99419.50
2023-08-27T12:49:24.438Z,99411.16
2023-08-27T12:52:27.277Z,99401.72
2023-08-27T12:55:30.018Z,99407.56
2023-08-27T12:58:32.860Z,99395.25
2023-08-27T13:01:35.833Z,99393.72
2023-08-27T13:04:38.849Z,99392.56
2023-08-27T13:07:41.897Z,99393.41
2023-08-27T13:10:44.754Z,99383.72
2023-08-27T13:13:47.654Z,99386.94
2023-08-27T13:16:50.559Z,99382.91
2023-08-27T13:19:53.294Z,99374.22
2023-08-27T13:22:56.393Z,99375.72
2023-08-27T13:25:59.191Z,99367.13
2023-08-27T13:29:01.964Z,99376.78
2023-08-27T13:32:04.962Z,99370.94
2023-08-27T13:35:08.325Z,99366.09
2023-08-27T13:38:11.309Z,99373.00
2023-08-27T13:41:14.396Z,99367.59
2023-08-27T13:44:17.086Z,99367.19
2023-08-27T13:47:19.942Z,99360.81
2023-08-27T13:50:22.934Z,99357.28
2023-08-27T13:53:25.801Z,99355.78
2023-08-27T13:56:28.720Z,99354.44
2023-08-27T13:59:31.542Z,99366.88
2023-08-27T14:02:34.408Z,99356.25
2023-08-27T14:05:37.888Z,99349.94
2023-08-27T14:08:40.662Z,99349.19
2023-08-27T14:11:43.565Z,99335.44
2023-08-27T14:14:46.502Z,99328.13
2023-08-27T14:17:49.302Z,99335.16
2023-08-27T14:20:52.109Z,99325.56
2023-08-27T14:23:54.965Z,99319.12
2023-08-27T14:26:57.655Z,99317.22
2023-08-27T14:30:00.521Z,99315.47
2023-08-27T14:33:04.205Z,99322.37
2023-08-27T14:36:07.404Z,99312.53
2023-08-27T14:39:10.154Z,99302.31
2023-08-27T14:42:13.013Z,99313.03
2023-08-27T14:45:15.806Z,99317.22
2023-08-27T14:48:18.568Z,99316.97
2023-08-27T14:51:21.477Z,99318.22
2023-08-27T14:54:24.418Z,99306.19
2023-08-27T14:57:27.356Z,99313.72
2023-08-27T15:00:30.271Z,99318.59
2023-08-27T15:03:33.096Z,99314.44
2023-08-27T15:06:35.811Z,99312.84
2023-08-27T15:09:38.712Z,99316.53
2023-08-27T15:12:41.736Z,99303.16
2023-08-27T15:15:44.485Z,99300.97
2023-08-27T15:18:47.357Z,99301.19
2023-08-27T15:21:50.087Z,99298.44
2023-08-27T15:24:52.906Z,99301.06
2023-08-27T15:27:55.892Z,99301.84
2023-08-27T15:30:58.678Z,99294.88
2023-08-27T15:34:01.445Z,99302.13
2023-08-27T15:37:06.412Z,99311.16
2023-08-27T15:40:09.682Z,99299.53
2023-08-27T15:43:20.651Z,99309.69
2023-08-27T15:46:25.597Z,99300.44
2023-08-27T15:49:29.360Z,99302.69
2023-08-27T15:52:34.229Z,99303.28
2023-08-27T15:55:37.087Z,99294.97
2023-08-27T15:58:39.903Z,99293.50
2023-08-27T16:01:42.746Z,99299.31
2023-08-27T16:04:45.521Z,99302.91
2023-08-27T16:07:48.415Z,99295.22
2023-08-27T16:10:51.608Z,99292.66
2023-08-27T16:13:54.348Z,99289.59
2023-08-27T16:16:57.310Z,99290.31
2023-08-27T16:20:00.054Z,99288.31
2023-08-27T16:23:03.192Z,99287.56
2023-08-27T16:26:05.978Z,99274.75
2023-08-27T16:29:08.630Z,99269.69
2023-08-27T16:32:11.344Z,99271.31
2023-08-27T16:35:14.312Z,99266.22
2023-08-27T16:38:16.971Z,99268.75
2023-08-27T16:41:19.692Z,99263.19
2023-08-27T16:44:23.370Z,99262.09
2023-08-27T16:47:26.503Z,99263.75
2023-08-27T16:50:29.554Z,99260.28
2023-08-27T16:53:32.204Z,99258.38
2023-08-27T16:56:34.967Z,99260.22
2023-08-27T16:59:37.752Z,99255.28
2023-08-27T17:02:40.725Z,99252.63
2023-08-27T17:05:44.127Z,99255.97
2023-08-27T17:08:46.914Z,99249.88
2023-08-27T17:11:49.627Z,99259.78
2023-08-27T17:14:52.400Z,99269.00
2023-08-27T17:17:55.706Z,99280.91
2023-08-27T17:20:59.367Z,99267.81
2023-08-27T17:24:04.798Z,99274.88
2023-08-27T17:27:07.903Z,99274.59
2023-08-27T17:30:11.315Z,99268.78
2023-08-27T17:36:44.251Z,99280.72
2023-08-27T17:39:47.765Z,99293.44
2023-08-27T17:42:51.426Z,99290.47
2023-08-27T17:45:54.508Z,99288.59
2023-08-27T17:49:00.641Z,99296.53
2023-08-27T17:52:04.138Z,99294.72
2023-08-27T17:55:07.382Z,99302.69
2023-08-27T17:58:12.838Z,99308.84
2023-08-27T18:01:16.329Z,99311.00
2023-08-27T18:04:19.588Z,99316.66
2023-08-27T18:07:29.696Z,99320.50
2023-08-27T18:11:32.810Z,99333.25
2023-08-27T18:15:02.039Z,99347.41
2023-08-27T18:18:09.339Z,99357.25
2023-08-27T18:21:12.229Z,99361.34
2023-08-27T18:24:15.220Z,99369.56
2023-08-27T18:27:18.681Z,99372.06
2023-08-27T18:30:59.464Z,99372.75
2023-08-27T18:34:23.931Z,99373.97
2023-08-27T18:37:30.826Z,99376.06
2023-08-27T18:40:35.102Z,99390.66
2023-08-27T18:43:40.202Z,99393.66
2023-08-27T18:46:44.715Z,99399.22
2023-08-27T18:49:48.796Z,99407.25
2023-08-27T18:52:52.206Z,99413.13
2023-08-27T18:55:59.994Z,99421.41
2023-08-27T18:59:04.449Z,99416.28
2023-08-27T19:02:17.517Z,99421.69
2023-08-27T19:05:20.385Z,99400.53
2023-08-27T19:08:23.222Z,99424.84
2023-08-27T19:11:26.061Z,99427.19
2023-08-27T19:14:32.139Z,99447.81
2023-08-27T19:17:38.245Z,99444.41
2023-08-27T19:20:41.146Z,99451.69
2023-08-27T19:23:43.887Z,99450.47
2023-08-27T19:26:46.668Z,99451.97
2023-08-27T19:29:49.389Z,99451.50
2023-08-27T19:32:52.623Z,99453.69
2023-08-27T19:35:55.863Z,99453.72
2023-08-27T19:38:58.933Z,99451.87
2023-08-27T19:42:01.862Z,99454.91
2023-08-27T19:45:05.191Z,99456.00
2023-08-27T19:48:07.979Z,99450.09
2023-08-27T19:51:11.192Z,99455.56
2023-08-27T19:54:14.449Z,99468.56
2023-08-27T19:57:18.017Z,99465.38
2023-08-27T20:00:21.730Z,99466.75
2023-08-27T20:03:25.788Z,99470.84
2023-08-27T20:06:30.696Z,99471.41
2023-08-27T20:09:35.300Z,99471.47
2023-08-27T20:12:38.471Z,99472.88
2023-08-27T20:15:44.609Z,99470.13
2023-08-27T20:18:47.551Z,99457.31
2023-08-27T20:21:50.406Z,99468.94
2023-08-27T20:24:53.220Z,99477.56
2023-08-27T20:27:56.706Z,99491.03
2023-08-27T20:30:59.456Z,99488.91
2023-08-27T20:34:02.343Z,99490.78
2023-08-27T20:37:05.427Z,99504.00
2023-08-27T20:40:15.751Z,99497.03
2023-08-27T20:43:18.529Z,99504.84
2023-08-27T20:46:22.105Z,99510.50
2023-08-27T20:49:25.178Z,99515.91
2023-08-27T20:52:28.041Z,99514.31
2023-08-27T20:55:31.117Z,99526.16
2023-08-27T20:58:33.811Z,99521.91
2023-08-27T21:01:36.568Z,99523.78
2023-08-27T21:07:42.449Z,99517.88
2023-08-27T21:10:49.394Z,99513.84
2023-08-27T21:13:56.507Z,99513.87
2023-08-27T21:17:02.797Z,99511.41
2023-08-27T21:20:06.153Z,99529.72
2023-08-27T21:23:10.646Z,99524.06
2023-08-27T21:26:13.431Z,99523.00
2023-08-27T21:29:16.313Z,99531.59
2023-08-27T21:32:21.097Z,99536.16
2023-08-27T21:35:23.946Z,99519.22
2023-08-27T21:38:26.666Z,99527.28
2023-08-27T21:41:32.314Z,99523.25
2023-08-27T21:44:36.125Z,99510.34
2023-08-27T21:47:39.978Z,99534.53
2023-08-27T21:50:45.487Z,99522.97
2023-08-27T21:53:48.252Z,99520.28
2023-08-27T21:56:53.932Z,99523.50
2023-08-27T21:59:56.671Z,99514.91
2023-08-27T22:03:02.658Z,99525.38
2023-08-27T22:06:08.783Z,99514.38
2023-08-27T22:09:12.899Z,99521.63
2023-08-27T22:12:15.975Z,99516.75
2023-08-27T22:15:18.849Z,99521.59
2023-08-27T22:18:24.451Z,99515.91
2023-08-27T22:21:27.225Z,99516.69
2023-08-27T22:24:30.562Z,99520.19
2023-08-27T22:27:36.476Z,99520.72
2023-08-27T22:30:42.713Z,99528.75
2023-08-27T22:33:45.525Z,99530.38
2023-08-27T22:36:48.437Z,99541.63
2023-08-27T22:39:54.263Z,99548.03
2023-08-27T22:42:57.039Z,99544.81
2023-08-27T22:46:02.978Z,99537.84
2023-08-27T22:49:06.146Z,99540.28
2023-08-27T22:52:08.846Z,99540.56
2023-08-27T22:55:14.730Z,99541.88
2023-08-27T22:58:17.478Z,99545.09
2023-08-27T23:01:20.359Z,99539.47
2023-08-27T23:04:26.134Z,99550.72
2023-08-27T23:07:28.844Z,99551.19
2023-08-27T23:10:32.604Z,99543.13
2023-08-27T23:13:35.307Z,99540.19
2023-08-27T23:16:38.235Z,99543.13
2023-08-27T23:19:41.617Z,99549.00
2023-08-27T23:22:44.351Z,99544.69
2023-08-27T23:25:47.493Z,99534.22
2023-08-27T23:28:57.480Z,99541.97
2023-08-27T23:32:00.241Z,99533.41
2023-08-27T23:35:04.560Z,99545.16
2023-08-27T23:38:07.289Z,99548.41
2023-08-27T23:41:10.310Z,99543.03
2023-08-27T23:44:13.049Z,99549.75
2023-08-27T23:47:15.759Z,99544.66
2023-08-27T23:50:18.552Z,99540.31
2023-08-27T23:53:24.113Z,99538.44
2023-08-27T23:56:26.947Z,99531.19
2023-08-27T23:59:33.872Z,99537.66
